Time;durP1;ratioP1;P1;durP2;ratioP2;P2;SDS_P1;SDS_P2;PMS_P1;PMS_P2;Temp;Humidity;BMP_temperature;BMP_pressure;BME280_temperature;BME280_humidity;BME280_pressure;Samples;Min_cycle;Max_cycle;Signal;HPM_P1;HPM_P2
2024/02/13 00:00:40;;;;;;;2.10;0.60;;;4.80;99.90;;;;;;4935532;29;21031;-79
2024/02/13 00:03:09;;;;;;;0.40;0.40;;;4.80;99.90;;;;;;4937594;29;20451;-79
2024/02/13 00:05:36;;;;;;;0.50;0.50;;;4.80;99.90;;;;;;4938321;29;20792;-80
2024/02/13 00:08:03;;;;;;;0.70;0.47;;;4.80;99.90;;;;;;4940993;29;20458;-79
2024/02/13 00:10:33;;;;;;;0.70;0.70;;;4.90;99.90;;;;;;4939303;29;20498;-79
2024/02/13 00:12:59;;;;;;;2.30;0.47;;;4.90;99.90;;;;;;4939683;29;20454;-79
2024/02/13 00:15:26;;;;;;;0.53;0.40;;;5.00;99.90;;;;;;4939644;29;20451;-79
2024/02/13 00:17:53;;;;;;;1.23;0.40;;;5.10;99.90;;;;;;4943445;29;20460;-79
2024/02/13 00:20:20;;;;;;;1.53;0.70;;;5.20;99.90;;;;;;4939900;29;20491;-79
2024/02/13 00:22:47;;;;;;;4.13;1.47;;;5.30;99.90;;;;;;4939577;29;20450;-79
2024/02/13 00:25:15;;;;;;;0.70;0.47;;;5.40;99.90;;;;;;4939435;29;20462;-79
2024/02/13 00:27:43;;;;;;;0.50;0.30;;;5.40;99.90;;;;;;4939433;29;20447;-79
2024/02/13 00:30:11;;;;;;;0.60;0.60;;;5.50;99.90;;;;;;4939227;29;20479;-79
2024/02/13 00:32:38;;;;;;;0.97;0.47;;;5.50;99.90;;;;;;4939402;29;20502;-79
2024/02/13 00:35:05;;;;;;;1.23;0.40;;;5.50;99.90;;;;;;4939313;29;20506;-79
2024/02/13 00:37:32;;;;;;;2.10;0.50;;;5.50;99.90;;;;;;4938917;29;20952;-79
2024/02/13 00:39:59;;;;;;;0.40;0.40;;;5.50;99.90;;;;;;4938979;29;20463;-79
2024/02/13 00:42:26;;;;;;;0.30;0.30;;;5.50;99.90;;;;;;4939123;29;20455;-79
2024/02/13 00:44:54;;;;;;;0.93;0.40;;;5.50;99.90;;;;;;4939168;29;20490;-79
2024/02/13 00:47:21;;;;;;;0.40;0.30;;;5.50;99.90;;;;;;4939114;29;20450;-79
2024/02/13 00:49:48;;;;;;;1.07;0.50;;;5.60;99.90;;;;;;4939137;29;20463;-79
2024/02/13 00:52:17;;;;;;;1.00;0.40;;;5.60;99.90;;;;;;4939107;29;20809;-79
2024/02/13 00:54:43;;;;;;;0.60;0.60;;;5.60;99.90;;;;;;4939146;29;20447;-79
2024/02/13 00:57:10;;;;;;;0.40;0.40;;;5.70;99.90;;;;;;4938904;29;20481;-79
2024/02/13 00:59:37;;;;;;;0.50;0.50;;;5.70;99.90;;;;;;4938634;29;20566;-79
2024/02/13 01:02:05;;;;;;;0.40;0.40;;;5.70;99.90;;;;;;4938718;29;20521;-79
2024/02/13 01:04:32;;;;;;;0.60;0.60;;;5.70;99.90;;;;;;4938771;29;20440;-79
2024/02/13 01:06:59;;;;;;;0.40;0.30;;;5.80;99.90;;;;;;4938804;29;20458;-79
2024/02/13 01:09:26;;;;;;;0.40;0.40;;;5.70;99.90;;;;;;4938372;29;20976;-79
2024/02/13 01:11:52;;;;;;;0.43;0.43;;;5.70;99.90;;;;;;4938099;29;20909;-79
2024/02/13 01:14:19;;;;;;;1.37;0.50;;;5.60;99.90;;;;;;4938869;29;20443;-79
2024/02/13 01:16:46;;;;;;;0.40;0.40;;;5.50;99.90;;;;;;4937897;29;20817;-79
2024/02/13 01:19:14;;;;;;;7.00;0.80;;;5.50;99.90;;;;;;4938468;29;20475;-79
2024/02/13 01:21:43;;;;;;;2.00;0.70;;;5.40;99.90;;;;;;4938048;29;20475;-79
2024/02/13 01:24:10;;;;;;;0.40;0.30;;;5.50;99.90;;;;;;4938389;29;20451;-79
2024/02/13 01:26:37;;;;;;;0.40;0.30;;;5.50;99.90;;;;;;4938363;29;20455;-79
2024/02/13 01:29:04;;;;;;;0.40;0.40;;;5.50;99.90;;;;;;4938351;29;20475;-79
2024/02/13 01:31:32;;;;;;;0.30;0.30;;;5.40;99.90;;;;;;4938255;29;20451;-79
2024/02/13 01:33:59;;;;;;;0.30;0.30;;;5.40;99.90;;;;;;4938946;29;20447;-79
2024/02/13 01:36:28;;;;;;;0.30;0.30;;;5.40;99.90;;;;;;4938214;29;20455;-79
2024/02/13 01:38:54;;;;;;;0.50;0.50;;;5.50;99.90;;;;;;4937986;29;20454;-79
2024/02/13 01:41:21;;;;;;;4.10;0.90;;;5.50;99.90;;;;;;4937745;29;20487;-79
2024/02/13 01:43:49;;;;;;;0.60;0.40;;;5.60;99.90;;;;;;4937722;29;20955;-79
2024/02/13 01:46:16;;;;;;;0.37;0.37;;;5.70;99.90;;;;;;4938043;29;20905;-79
2024/02/13 01:48:43;;;;;;;0.40;0.30;;;5.70;99.90;;;;;;4937879;29;20502;-79
2024/02/13 01:51:12;;;;;;;0.30;0.30;;;5.70;99.90;;;;;;4938077;29;20450;-79
2024/02/13 01:53:41;;;;;;;0.40;0.30;;;5.70;99.90;;;;;;4937816;29;20456;-79
2024/02/13 01:56:09;;;;;;;0.30;0.30;;;5.70;99.90;;;;;;4937797;29;20798;-79
2024/02/13 01:58:38;;;;;;;0.37;0.33;;;5.70;99.90;;;;;;4937713;29;20945;-79
2024/02/13 02:01:06;;;;;;;0.40;0.40;;;5.80;99.90;;;;;;4946983;29;20514;-79
2024/02/13 02:03:35;;;;;;;1.13;0.50;;;5.70;99.90;;;;;;4937402;29;20467;-79
2024/02/13 02:06:03;;;;;;;0.47;0.40;;;5.70;99.90;;;;;;4937544;29;20447;-79
2024/02/13 02:08:30;;;;;;;0.40;0.30;;;5.60;99.90;;;;;;4937455;29;20486;-79
2024/02/13 02:10:58;;;;;;;0.80;0.60;;;5.60;99.90;;;;;;4937165;29;20502;-79
2024/02/13 02:13:26;;;;;;;1.60;0.40;;;5.60;99.90;;;;;;4937410;29;20475;-79
2024/02/13 02:15:54;;;;;;;1.00;0.90;;;5.50;99.90;;;;;;4937591;29;20494;-79
2024/02/13 02:18:21;;;;;;;0.60;0.30;;;5.40;99.90;;;;;;4937262;29;20550;-79
2024/02/13 02:20:48;;;;;;;0.80;0.60;;;5.30;99.90;;;;;;4937353;29;20478;-79
2024/02/13 02:23:14;;;;;;;0.40;0.40;;;5.20;99.90;;;;;;4937381;29;20474;-79
2024/02/13 02:25:43;;;;;;;0.30;0.30;;;5.20;99.90;;;;;;4937256;29;20447;-79
2024/02/13 02:28:10;;;;;;;0.73;0.40;;;5.20;99.90;;;;;;4936808;29;20459;-79
2024/02/13 02:30:37;;;;;;;0.67;0.47;;;5.10;99.90;;;;;;4936490;29;20474;-79
2024/02/13 02:33:04;;;;;;;0.40;0.40;;;5.20;99.90;;;;;;4937156;29;20447;-79
2024/02/13 02:35:30;;;;;;;0.30;0.30;;;5.20;99.90;;;;;;4937207;29;20450;-79
2024/02/13 02:37:57;;;;;;;1.77;0.70;;;5.20;99.90;;;;;;4936931;29;20534;-79
2024/02/13 02:40:24;;;;;;;0.30;0.30;;;5.20;99.90;;;;;;4936886;29;20467;-79
2024/02/13 02:42:55;;;;;;;0.40;0.30;;;5.20;99.90;;;;;;4936853;29;20892;-79
2024/02/13 02:45:21;;;;;;;0.60;0.50;;;5.20;99.90;;;;;;4936885;29;20447;-79
2024/02/13 02:47:49;;;;;;;0.30;0.30;;;5.20;99.90;;;;;;4936807;29;20447;-79
2024/02/13 02:50:16;;;;;;;0.93;0.93;;;5.20;99.90;;;;;;4936676;29;20479;-79
2024/02/13 02:52:44;;;;;;;0.77;0.40;;;5.30;99.90;;;;;;4936701;29;20443;-79
2024/02/13 02:55:11;;;;;;;2.10;0.50;;;5.20;99.90;;;;;;4936768;29;20814;-79
2024/02/13 02:57:38;;;;;;;0.40;0.40;;;5.20;99.90;;;;;;4936543;29;20530;-79
2024/02/13 03:00:10;;;;;;;0.83;0.80;;;5.20;99.90;;;;;;4936559;29;20478;-79
2024/02/13 03:02:37;;;;;;;1.03;0.47;;;5.20;99.90;;;;;;4936576;29;20485;-79
2024/02/13 03:05:04;;;;;;;0.40;0.40;;;5.20;99.90;;;;;;4936249;29;20462;-79
2024/02/13 03:07:31;;;;;;;0.40;0.40;;;5.20;99.90;;;;;;4936261;29;20889;-80
2024/02/13 03:09:58;;;;;;;1.30;0.40;;;5.00;99.90;;;;;;4936153;29;20495;-79
2024/02/13 03:12:25;;;;;;;0.30;0.30;;;5.00;99.90;;;;;;4936560;29;20475;-79
2024/02/13 03:14:52;;;;;;;0.30;0.30;;;4.90;99.90;;;;;;4936616;29;20474;-79
2024/02/13 03:17:21;;;;;;;0.70;0.53;;;4.90;99.90;;;;;;4936389;29;20451;-79
2024/02/13 03:19:47;;;;;;;0.87;0.40;;;4.80;99.90;;;;;;4936311;29;20474;-79
2024/02/13 03:22:14;;;;;;;0.50;0.50;;;4.80;99.90;;;;;;4936307;29;20494;-79
2024/02/13 03:24:41;;;;;;;0.40;0.40;;;4.80;99.90;;;;;;4936123;29;20459;-79
2024/02/13 03:27:08;;;;;;;0.90;0.30;;;4.70;99.90;;;;;;4936362;29;20458;-79
2024/02/13 03:29:34;;;;;;;0.40;0.40;;;4.70;99.90;;;;;;4936409;29;20479;-79
2024/02/13 03:32:01;;;;;;;0.63;0.63;;;4.70;99.90;;;;;;4936268;29;20949;-79
2024/02/13 03:34:29;;;;;;;0.40;0.40;;;4.60;99.90;;;;;;4936334;29;20466;-79
2024/02/13 03:36:56;;;;;;;0.40;0.30;;;4.60;99.90;;;;;;4936285;29;20447;-79
2024/02/13 03:39:23;;;;;;;0.60;0.50;;;4.60;99.90;;;;;;4936180;29;20479;-79
2024/02/13 03:41:50;;;;;;;0.60;0.60;;;4.60;99.90;;;;;;4940344;29;20585;-79
2024/02/13 03:44:17;;;;;;;0.80;0.40;;;4.60;99.90;;;;;;4940367;29;20455;-79
2024/02/13 03:46:44;;;;;;;2.57;0.50;;;4.60;99.90;;;;;;4940135;29;20530;-79
2024/02/13 03:49:11;;;;;;;0.50;0.50;;;4.60;99.90;;;;;;4939956;29;20471;-79
2024/02/13 03:51:39;;;;;;;0.57;0.43;;;4.60;99.90;;;;;;4940025;29;20451;-79
2024/02/13 03:54:07;;;;;;;0.40;0.40;;;4.60;99.90;;;;;;4939994;29;20451;-79
2024/02/13 03:56:33;;;;;;;0.60;0.60;;;4.60;99.90;;;;;;4939995;29;20458;-79
2024/02/13 03:59:00;;;;;;;0.57;0.50;;;4.60;99.90;;;;;;4939758;29;20447;-79
2024/02/13 04:01:28;;;;;;;0.57;0.40;;;4.60;99.90;;;;;;4939822;29;20497;-79
2024/02/13 04:03:54;;;;;;;0.57;0.57;;;4.50;99.90;;;;;;4939762;29;20446;-79
2024/02/13 04:06:21;;;;;;;0.50;0.40;;;4.50;99.90;;;;;;4939808;29;20451;-79
2024/02/13 04:08:49;;;;;;;0.40;0.37;;;4.50;99.90;;;;;;4939259;29;20960;-79
2024/02/13 04:11:16;;;;;;;1.33;0.50;;;4.50;99.90;;;;;;4939243;29;20498;-79
2024/02/13 04:13:44;;;;;;;0.30;0.30;;;4.50;99.90;;;;;;4947495;29;20443;-79
2024/02/13 04:16:10;;;;;;;7.53;0.70;;;4.50;99.90;;;;;;4939582;29;20458;-80
2024/02/13 04:18:39;;;;;;;2.93;0.60;;;4.50;99.90;;;;;;4939567;29;20490;-79
2024/02/13 04:21:06;;;;;;;0.33;0.33;;;4.50;99.90;;;;;;4939128;29;20997;-79
2024/02/13 04:23:35;;;;;;;0.40;0.30;;;4.50;99.90;;;;;;4939392;29;20538;-79
2024/02/13 04:26:05;;;;;;;4.63;1.43;;;4.50;99.90;;;;;;4939385;29;20490;-79
2024/02/13 04:28:32;;;;;;;0.90;0.70;;;4.50;99.90;;;;;;4939362;29;20454;-79
2024/02/13 04:30:58;;;;;;;1.13;0.40;;;4.40;99.90;;;;;;4939233;29;20471;-79
2024/02/13 04:33:25;;;;;;;1.30;0.63;;;4.40;99.90;;;;;;4939319;29;20458;-79
2024/02/13 04:35:52;;;;;;;0.57;0.50;;;4.30;99.90;;;;;;4939237;29;20447;-79
2024/02/13 04:38:19;;;;;;;0.50;0.50;;;4.30;99.90;;;;;;4939079;29;20458;-79
2024/02/13 04:40:45;;;;;;;0.70;0.40;;;4.30;99.90;;;;;;4939018;29;20474;-80
2024/02/13 04:43:13;;;;;;;0.40;0.40;;;4.30;99.90;;;;;;4939069;29;21015;-79
2024/02/13 04:45:40;;;;;;;0.50;0.40;;;4.30;99.90;;;;;;4939051;29;20459;-79
2024/02/13 04:48:13;;;;;;;0.40;0.30;;;4.20;99.90;;;;;;4939143;29;20454;-79
2024/02/13 04:50:39;;;;;;;0.50;0.40;;;4.20;99.90;;;;;;4939274;29;21007;-79
2024/02/13 04:53:07;;;;;;;0.40;0.40;;;4.10;99.90;;;;;;4937763;29;20443;-79
2024/02/13 04:55:34;;;;;;;0.70;0.30;;;4.10;99.90;;;;;;4938926;29;20447;-80
2024/02/13 04:58:02;;;;;;;2.50;0.50;;;4.10;99.90;;;;;;4938805;29;20506;-79
2024/02/13 05:00:35;;;;;;;0.70;0.63;;;4.10;99.90;;;;;;4938792;29;20503;-80
2024/02/13 05:03:03;;;;;;;0.30;0.30;;;4.00;99.90;;;;;;4938677;29;20467;-80
2024/02/13 05:08:14;;;;;;;0.50;0.43;;;4.00;99.90;;;;;;4938958;29;20503;-79
2024/02/13 05:10:41;;;;;;;0.50;0.50;;;4.00;99.90;;;;;;4938246;29;20483;-80
2024/02/13 05:13:08;;;;;;;0.40;0.40;;;3.90;99.90;;;;;;4938636;29;20486;-79
2024/02/13 05:15:36;;;;;;;0.53;0.50;;;4.00;99.90;;;;;;4938564;29;20459;-79
2024/02/13 05:18:04;;;;;;;0.40;0.40;;;3.90;99.90;;;;;;4938478;29;21004;-79
2024/02/13 05:20:31;;;;;;;0.50;0.30;;;3.90;99.90;;;;;;4938355;29;20471;-80
2024/02/13 05:22:58;;;;;;;0.70;0.50;;;3.90;99.90;;;;;;4938060;29;20489;-79
2024/02/13 05:25:26;;;;;;;2.10;0.60;;;3.90;99.90;;;;;;4938026;29;21008;-79
2024/02/13 05:27:53;;;;;;;0.63;0.63;;;3.90;99.90;;;;;;4937917;29;20455;-80
2024/02/13 05:30:22;;;;;;;0.77;0.43;;;3.90;99.90;;;;;;4938192;29;20550;-80
2024/02/13 05:32:50;;;;;;;0.70;0.70;;;4.00;99.90;;;;;;4938081;29;20960;-79
2024/02/13 05:35:18;;;;;;;0.50;0.40;;;4.00;99.90;;;;;;4938204;29;20457;-79
2024/02/13 05:37:44;;;;;;;0.57;0.57;;;4.10;99.90;;;;;;4938084;29;20820;-79
2024/02/13 05:40:12;;;;;;;0.30;0.30;;;4.20;99.90;;;;;;4937765;29;20474;-79
2024/02/13 05:42:39;;;;;;;0.40;0.40;;;4.30;99.90;;;;;;4938084;29;20490;-79
2024/02/13 05:45:07;;;;;;;0.60;0.60;;;4.30;99.90;;;;;;4937694;29;20941;-79
2024/02/13 05:47:35;;;;;;;1.43;0.47;;;;;;;;;;4937898;29;20458;-79
2024/02/13 05:50:03;;;;;;;0.93;0.93;;;4.40;99.90;;;;;;4937809;29;20490;-79
2024/02/13 05:52:31;;;;;;;0.37;0.33;;;4.40;99.90;;;;;;4937573;29;20456;-79
2024/02/13 05:54:58;;;;;;;0.40;0.40;;;4.40;99.90;;;;;;4937636;29;20486;-79
2024/02/13 05:57:25;;;;;;;0.60;0.50;;;4.50;99.90;;;;;;4937916;29;20506;-79
2024/02/13 05:59:52;;;;;;;1.23;0.90;;;4.50;99.90;;;;;;4937515;29;20481;-79
2024/02/13 06:02:18;;;;;;;0.50;0.50;;;4.50;99.90;;;;;;4937599;29;20514;-79
2024/02/13 06:04:45;;;;;;;0.40;0.30;;;4.50;99.90;;;;;;4937421;29;20470;-79
2024/02/13 06:07:13;;;;;;;0.30;0.30;;;4.50;99.90;;;;;;4937520;29;20455;-79
2024/02/13 06:09:40;;;;;;;0.77;0.67;;;4.50;99.90;;;;;;4937322;29;20467;-79
2024/02/13 06:12:08;;;;;;;3.90;0.93;;;4.50;99.90;;;;;;4937258;29;20432;-79
2024/02/13 06:14:34;;;;;;;0.40;0.40;;;4.50;99.90;;;;;;4937464;29;20455;-80
2024/02/13 06:17:01;;;;;;;0.50;0.30;;;4.50;99.90;;;;;;4937367;29;20440;-79
2024/02/13 06:19:28;;;;;;;2.00;0.50;;;4.40;99.90;;;;;;4937754;29;20478;-79
2024/02/13 06:21:54;;;;;;;0.53;0.30;;;4.40;99.90;;;;;;4937076;29;20949;-79
2024/02/13 06:24:23;;;;;;;0.50;0.50;;;4.40;99.90;;;;;;4937452;29;20524;-79
2024/02/13 06:26:51;;;;;;;0.30;0.30;;;4.50;99.90;;;;;;4937380;29;20507;-79
2024/02/13 06:29:18;;;;;;;0.50;0.50;;;4.50;99.90;;;;;;4938276;29;20479;-79
2024/02/13 06:31:45;;;;;;;0.47;0.37;;;4.50;99.90;;;;;;4950010;29;20447;-79
2024/02/13 06:34:15;;;;;;;0.40;0.30;;;4.60;99.90;;;;;;4937257;29;20450;-79
2024/02/13 06:36:42;;;;;;;0.47;0.47;;;4.60;99.90;;;;;;4937444;29;20435;-79
2024/02/13 06:39:12;;;;;;;0.40;0.40;;;4.60;99.90;;;;;;4936977;29;20841;-79
2024/02/13 06:41:40;;;;;;;0.50;0.50;;;4.60;99.90;;;;;;4936905;29;20456;-79
2024/02/13 06:44:07;;;;;;;0.40;0.40;;;4.60;99.90;;;;;;4936870;29;20490;-79
2024/02/13 06:46:33;;;;;;;0.70;0.40;;;4.60;99.90;;;;;;4937116;29;20451;-79
2024/02/13 06:49:00;;;;;;;0.90;0.90;;;4.60;99.90;;;;;;4936792;29;20459;-79
2024/02/13 06:51:28;;;;;;;0.50;0.50;;;;;;;;;;4936574;29;20952;-79
2024/02/13 06:53:55;;;;;;;0.50;0.50;;;4.60;99.90;;;;;;4936710;29;20539;-79
2024/02/13 06:56:22;;;;;;;0.30;0.30;;;4.70;99.90;;;;;;4936763;29;20475;-79
2024/02/13 06:58:50;;;;;;;0.50;0.50;;;4.70;99.90;;;;;;4936652;29;20480;-79
2024/02/13 07:01:20;;;;;;;0.40;0.30;;;4.70;99.90;;;;;;4936702;29;20451;-79
2024/02/13 07:03:46;;;;;;;0.40;0.40;;;4.80;99.90;;;;;;4936552;29;20483;-79
2024/02/13 07:06:16;;;;;;;0.70;0.40;;;4.80;99.90;;;;;;4936583;29;20458;-79
2024/02/13 07:08:42;;;;;;;0.50;0.40;;;4.90;99.90;;;;;;4936598;29;20542;-79
2024/02/13 07:11:10;;;;;;;0.70;0.40;;;4.90;99.90;;;;;;4936096;29;21016;-79
2024/02/13 07:13:37;;;;;;;0.63;0.63;;;4.90;99.90;;;;;;4937147;29;20636;-79
2024/02/13 07:16:06;;;;;;;0.50;0.40;;;4.90;99.90;;;;;;4935699;29;20439;-79
2024/02/13 07:18:34;;;;;;;3.90;0.77;;;4.80;99.90;;;;;;4936201;29;20896;-79
2024/02/13 07:21:00;;;;;;;0.60;0.60;;;4.80;99.90;;;;;;4936161;29;20506;-79
2024/02/13 07:23:27;;;;;;;1.23;0.63;;;4.80;99.90;;;;;;4936178;29;20590;-79
2024/02/13 07:25:54;;;;;;;0.47;0.47;;;4.80;99.90;;;;;;4936212;29;20477;-79
2024/02/13 07:28:21;;;;;;;2.23;0.80;;;4.80;99.90;;;;;;4935899;29;20546;-79
2024/02/13 07:30:48;;;;;;;0.30;0.30;;;4.80;99.90;;;;;;4936221;29;20474;-79
2024/02/13 07:33:16;;;;;;;0.40;0.30;;;4.80;99.90;;;;;;4936266;29;20439;-79
2024/02/13 07:35:42;;;;;;;0.40;0.33;;;5.00;99.90;;;;;;4936237;29;20808;-79
2024/02/13 07:38:09;;;;;;;0.50;0.50;;;5.00;99.90;;;;;;4936162;29;20455;-79
2024/02/13 07:40:36;;;;;;;0.40;0.40;;;5.10;99.90;;;;;;4936073;29;20471;-79
2024/02/13 07:43:02;;;;;;;0.43;0.43;;;5.10;99.90;;;;;;4936111;29;20479;-79
2024/02/13 07:45:29;;;;;;;0.40;0.40;;;5.10;99.90;;;;;;4936411;29;20503;-79
2024/02/13 07:47:56;;;;;;;0.63;0.40;;;5.10;99.90;;;;;;4936270;29;20455;-79
2024/02/13 07:50:26;;;;;;;0.87;0.60;;;5.00;99.90;;;;;;4936057;29;20571;-79
2024/02/13 07:52:52;;;;;;;1.23;1.13;;;5.00;99.90;;;;;;4936573;29;20447;-79
2024/02/13 07:55:19;;;;;;;12.43;1.33;;;5.00;99.90;;;;;;4936161;29;20469;-79
2024/02/13 07:57:50;;;;;;;0.50;0.50;;;5.00;99.90;;;;;;4935838;29;20956;-79
2024/02/13 08:00:17;;;;;;;0.40;0.40;;;5.00;99.90;;;;;;4935998;29;20566;-79
2024/02/13 08:02:44;;;;;;;3.70;0.40;;;5.00;99.90;;;;;;4936212;29;20483;-79
2024/02/13 08:05:12;;;;;;;0.57;0.50;;;5.00;99.90;;;;;;4935847;29;20512;-79
2024/02/13 08:07:41;;;;;;;0.40;0.40;;;5.10;99.90;;;;;;4935684;29;21020;-79
2024/02/13 08:10:10;;;;;;;0.40;0.40;;;5.10;99.90;;;;;;4935713;29;20546;-79
2024/02/13 08:12:37;;;;;;;0.70;0.47;;;5.00;99.90;;;;;;4935853;29;20485;-79
2024/02/13 08:15:05;;;;;;;0.50;0.50;;;5.10;99.90;;;;;;4935714;29;20455;-79
2024/02/13 08:17:32;;;;;;;0.83;0.37;;;5.10;99.90;;;;;;4935457;29;20462;-80
2024/02/13 08:19:59;;;;;;;2.10;0.67;;;5.20;99.90;;;;;;4935642;29;20459;-79
2024/02/13 08:22:26;;;;;;;0.67;0.67;;;5.10;99.90;;;;;;4935769;29;20486;-79
2024/02/13 08:24:54;;;;;;;0.30;0.30;;;5.20;99.90;;;;;;4935751;29;20474;-79
2024/02/13 08:27:21;;;;;;;0.40;0.30;;;5.30;99.90;;;;;;4938240;29;20451;-79
2024/02/13 08:29:48;;;;;;;0.40;0.40;;;5.30;99.90;;;;;;4939209;29;20471;-79
2024/02/13 08:32:14;;;;;;;0.40;0.40;;;5.40;99.90;;;;;;4939142;29;20431;-79
2024/02/13 08:34:41;;;;;;;1.00;0.40;;;5.40;99.90;;;;;;4939192;29;20446;-79
2024/02/13 08:37:08;;;;;;;0.50;0.50;;;5.50;99.90;;;;;;4940136;29;20446;-79
2024/02/13 08:39:36;;;;;;;0.80;0.80;;;5.60;99.90;;;;;;4938932;29;20499;-79
2024/02/13 08:42:04;;;;;;;3.13;1.03;;;5.60;99.90;;;;;;4939145;29;20447;-79
2024/02/13 08:44:33;;;;;;;0.30;0.30;;;5.70;99.90;;;;;;4951678;29;20463;-78
2024/02/13 08:47:00;;;;;;;0.77;0.77;;;5.80;99.90;;;;;;4939640;29;20948;-79
2024/02/13 08:49:26;;;;;;;1.13;0.50;;;6.00;99.90;;;;;;4938871;29;20478;-79
2024/02/13 08:51:55;;;;;;;3.07;0.93;;;6.30;99.90;;;;;;4939492;29;20917;-78
2024/02/13 08:54:21;;;;;;;2.63;0.60;;;6.60;99.90;;;;;;4938942;29;20522;-78
2024/02/13 08:56:48;;;;;;;1.50;0.50;;;7.10;99.90;;;;;;4938912;29;20462;-78
2024/02/13 08:59:16;;;;;;;0.40;0.40;;;7.60;99.90;;;;;;4938861;29;20478;-79
2024/02/13 09:01:44;;;;;;;0.90;0.80;;;8.10;99.90;;;;;;4938786;29;20506;-78
2024/02/13 09:04:12;;;;;;;8.40;0.60;;;8.50;99.90;;;;;;4938448;29;20487;-78
2024/02/13 09:06:39;;;;;;;0.87;0.40;;;8.90;99.90;;;;;;4938710;29;20455;-78
2024/02/13 09:09:08;;;;;;;0.90;0.40;;;9.30;99.90;;;;;;4938274;29;20985;-78
2024/02/13 09:11:35;;;;;;;0.40;0.40;;;9.90;99.90;;;;;;4938442;29;20854;-78
2024/02/13 09:14:02;;;;;;;0.70;0.60;;;10.50;99.90;;;;;;4938686;29;20941;-78
2024/02/13 09:16:30;;;;;;;0.80;0.50;;;11.20;99.90;;;;;;4938605;29;20458;-79
2024/02/13 09:18:56;;;;;;;2.23;0.47;;;11.90;99.90;;;;;;4938628;29;20446;-78
2024/02/13 09:21:23;;;;;;;0.40;0.30;;;12.80;99.90;;;;;;4938817;29;20447;-78
2024/02/13 09:23:50;;;;;;;1.13;0.50;;;13.60;99.90;;;;;;4938844;29;20474;-78
2024/02/13 09:26:17;;;;;;;3.20;1.37;;;14.50;99.90;;;;;;4938985;29;20442;-78
2024/02/13 09:28:44;;;;;;;0.63;0.50;;;15.10;99.90;;;;;;4938973;29;20447;-78
2024/02/13 09:31:11;;;;;;;1.37;0.67;;;16.00;99.90;;;;;;4939132;29;20454;-78
2024/02/13 09:33:41;;;;;;;1.07;0.60;;;16.90;99.90;;;;;;4938863;29;20546;-78
2024/02/13 09:36:09;;;;;;;0.60;0.47;;;18.30;99.90;;;;;;4938847;29;20455;-78
2024/02/13 09:38:38;;;;;;;0.47;0.47;;;18.90;99.90;;;;;;4938364;29;20483;-78
2024/02/13 09:41:05;;;;;;;1.80;0.50;;;20.00;99.70;;;;;;4938915;29;20504;-78
2024/02/13 09:43:32;;;;;;;1.00;0.70;;;20.60;97.20;;;;;;4938552;29;20566;-79
2024/02/13 09:45:59;;;;;;;0.77;0.50;;;20.60;95.50;;;;;;4938403;29;20489;-79
2024/02/13 09:48:25;;;;;;;0.93;0.77;;;21.30;93.80;;;;;;4938844;29;20442;-79
2024/02/13 09:50:58;;;;;;;0.70;0.67;;;21.60;91.90;;;;;;4938747;29;20474;-79
2024/02/13 09:53:26;;;;;;;0.70;0.53;;;21.30;90.20;;;;;;4938593;29;20455;-79
2024/02/13 09:55:54;;;;;;;1.10;0.80;;;21.80;90.10;;;;;;4938225;29;20968;-79
2024/02/13 09:58:21;;;;;;;1.00;0.77;;;21.50;88.50;;;;;;4938469;29;20478;-79
2024/02/13 10:00:48;;;;;;;1.37;0.60;;;20.80;87.70;;;;;;4938270;29;20473;-78
2024/02/13 10:03:16;;;;;;;0.83;0.70;;;19.90;88.30;;;;;;4938344;29;20455;-79
2024/02/13 10:05:43;;;;;;;1.00;0.90;;;19.40;89.80;;;;;;4938109;29;20455;-79
2024/02/13 10:08:11;;;;;;;0.43;0.43;;;19.20;89.90;;;;;;4938664;29;20456;-78
2024/02/13 10:10:38;;;;;;;1.03;0.60;;;19.00;90.00;;;;;;4938325;29;21075;-78
2024/02/13 10:13:06;;;;;;;0.60;0.60;;;18.60;90.90;;;;;;4938585;29;20443;-78
2024/02/13 10:15:42;;;;;;;0.80;0.50;;;18.20;91.00;;;;;;4939249;29;20486;-79
2024/02/13 10:18:11;;;;;;;2.83;1.00;;;18.20;90.80;;;;;;4938319;29;21019;-79
2024/02/13 10:20:38;;;;;;;2.40;0.80;;;18.30;90.70;;;;;;4938586;29;20467;-78
2024/02/13 10:23:05;;;;;;;7.70;0.73;;;18.80;91.20;;;;;;4938112;29;20447;-78
2024/02/13 10:25:33;;;;;;;0.70;0.70;;;18.80;88.50;;;;;;4938221;29;20458;-78
2024/02/13 10:28:01;;;;;;;0.40;0.40;;;19.60;89.50;;;;;;4938079;29;20451;-78
2024/02/13 10:30:29;;;;;;;0.70;0.60;;;20.30;87.50;;;;;;4938260;29;20557;-78
2024/02/13 10:33:00;;;;;;;0.67;0.60;;;20.90;86.30;;;;;;4938489;29;20431;-78
2024/02/13 10:35:29;;;;;;;0.80;0.60;;;21.00;84.10;;;;;;4938250;29;20482;-78
2024/02/13 10:37:56;;;;;;;0.80;0.60;;;20.50;83.00;;;;;;4938070;29;20455;-78
2024/02/13 10:40:26;;;;;;;0.50;0.50;;;19.80;84.30;;;;;;4937607;29;20984;-78
2024/02/13 10:42:54;;;;;;;1.93;0.50;;;19.10;86.00;;;;;;4937524;29;20451;-78
2024/02/13 10:45:23;;;;;;;0.70;0.50;;;18.30;81.40;;;;;;4937826;29;20483;-78
2024/02/13 10:47:51;;;;;;;2.60;0.50;;;17.30;85.50;;;;;;4937378;29;20971;-78
2024/02/13 10:50:19;;;;;;;0.50;0.50;;;16.70;88.10;;;;;;4936476;29;20464;-78
2024/02/13 10:52:46;;;;;;;1.80;0.77;;;16.00;89.30;;;;;;4937496;29;20944;-78
2024/02/13 10:55:18;;;;;;;1.63;0.60;;;15.10;91.00;;;;;;4937563;29;20439;-78
2024/02/13 10:57:48;;;;;;;0.67;0.67;;;14.30;91.70;;;;;;4943557;29;20435;-77
2024/02/13 11:00:19;;;;;;;0.80;0.60;;;13.70;92.50;;;;;;4938235;29;20965;-78
2024/02/13 11:02:48;;;;;;;0.80;0.63;;;12.90;93.80;;;;;;4937587;29;20436;-78
2024/02/13 11:05:16;;;;;;;0.50;0.50;;;12.20;95.40;;;;;;4936922;29;20483;-78
2024/02/13 11:07:44;;;;;;;0.60;0.47;;;11.80;95.90;;;;;;4936614;29;20455;-78
2024/02/13 11:10:12;;;;;;;1.53;1.10;;;11.50;96.50;;;;;;4936435;29;20494;-78
2024/02/13 11:12:39;;;;;;;0.93;0.70;;;11.30;97.90;;;;;;4936532;29;20458;-78
2024/02/13 11:15:09;;;;;;;2.90;0.83;;;11.10;98.40;;;;;;4936573;29;20454;-78
2024/02/13 11:17:45;;;;;;;0.60;0.50;;;11.10;99.30;;;;;;4936640;29;20451;-78
2024/02/13 11:20:14;;;;;;;1.00;0.50;;;10.90;99.90;;;;;;4936139;29;20814;-78
2024/02/13 11:22:51;;;;;;;0.60;0.60;;;10.80;99.90;;;;;;4936503;29;20455;-78
2024/02/13 11:25:18;;;;;;;0.60;0.57;;;10.80;99.90;;;;;;4936353;29;20477;-78
2024/02/13 11:27:47;;;;;;;0.40;0.40;;;10.80;99.90;;;;;;4936510;29;20504;-78
2024/02/13 11:30:23;;;;;;;0.40;0.40;;;10.90;99.90;;;;;;4936555;29;20471;-78
2024/02/13 11:32:58;;;;;;;2.10;0.40;;;10.90;99.90;;;;;;4936335;29;20431;-78
2024/02/13 11:35:29;;;;;;;1.30;0.37;;;11.00;99.90;;;;;;4936283;29;20513;-78
2024/02/13 11:37:56;;;;;;;0.40;0.40;;;11.00;97.60;;;;;;4936450;29;20432;-78
2024/02/13 11:40:23;;;;;;;1.60;0.50;;;11.00;97.40;;;;;;4936447;29;20471;-78
2024/02/13 11:42:49;;;;;;;0.40;0.30;;;11.00;98.60;;;;;;4936359;29;20510;-78
2024/02/13 11:45:25;;;;;;;1.27;0.50;;;11.00;98.50;;;;;;4936142;29;21019;-78
2024/02/13 11:47:54;;;;;;;0.50;0.43;;;11.10;98.00;;;;;;4936087;29;20490;-78
2024/02/13 11:50:21;;;;;;;0.30;0.30;;;11.10;98.00;;;;;;4936170;29;20509;-78
2024/02/13 11:52:50;;;;;;;0.40;0.30;;;11.10;97.10;;;;;;4936213;29;20447;-78
2024/02/13 11:55:19;;;;;;;0.40;0.30;;;11.30;97.90;;;;;;4936282;29;20479;-78
2024/02/13 11:57:46;;;;;;;0.43;0.43;;;11.20;97.70;;;;;;4935786;29;20945;-78
2024/02/13 12:00:18;;;;;;;0.80;0.40;;;11.10;97.20;;;;;;4935997;29;20809;-78
2024/02/13 12:02:47;;;;;;;0.50;0.50;;;11.20;97.00;;;;;;4939275;29;20435;-78
2024/02/13 12:05:16;;;;;;;0.47;0.30;;;11.20;97.60;;;;;;4939648;29;20489;-78
2024/02/13 12:07:43;;;;;;;0.40;0.40;;;11.10;98.30;;;;;;4939857;29;20959;-78
2024/02/13 12:10:12;;;;;;;0.50;0.30;;;11.20;98.70;;;;;;4939464;29;20992;-78
2024/02/13 12:12:40;;;;;;;2.87;0.30;;;11.20;98.30;;;;;;4940035;29;20451;-78
2024/02/13 12:15:10;;;;;;;0.30;0.30;;;11.30;98.50;;;;;;4939792;29;20439;-78
2024/02/13 12:17:38;;;;;;;0.80;0.40;;;11.30;97.90;;;;;;4939945;29;20527;-78
2024/02/13 12:20:12;;;;;;;0.40;0.30;;;11.20;98.30;;;;;;4939566;29;20477;-78
2024/02/13 12:22:44;;;;;;;0.50;0.40;;;11.20;98.40;;;;;;4939527;29;20526;-78
2024/02/13 12:25:10;;;;;;;0.60;0.50;;;11.30;99.20;;;;;;4939421;29;20510;-78
2024/02/13 12:27:38;;;;;;;0.50;0.40;;;11.50;98.70;;;;;;4939568;29;20450;-78
2024/02/13 12:30:11;;;;;;;0.40;0.40;;;11.50;97.60;;;;;;4939606;29;20495;-78
2024/02/13 12:32:38;;;;;;;0.30;0.30;;;11.40;95.90;;;;;;4939396;29;20482;-78
2024/02/13 12:35:21;;;;;;;0.30;0.30;;;11.30;95.60;;;;;;4939425;29;20447;-78
2024/02/13 12:37:51;;;;;;;0.30;0.30;;;11.40;95.00;;;;;;4939054;29;20927;-78
2024/02/13 12:40:20;;;;;;;0.60;0.47;;;11.40;96.00;;;;;;4939175;29;20889;-78
2024/02/13 12:42:47;;;;;;;1.03;0.40;;;11.40;96.10;;;;;;4939217;29;20546;-78
2024/02/13 12:45:13;;;;;;;0.37;0.30;;;11.30;95.80;;;;;;4939277;29;20890;-78
2024/02/13 12:47:42;;;;;;;0.30;0.30;;;11.20;95.70;;;;;;4939027;29;20451;-78
2024/02/13 12:50:13;;;;;;;0.30;0.30;;;11.00;95.40;;;;;;4939042;29;20477;-78
2024/02/13 12:52:40;;;;;;;0.50;0.50;;;10.90;96.20;;;;;;4938990;29;20442;-78
2024/02/13 12:55:13;;;;;;;0.40;0.30;;;10.90;96.30;;;;;;4938987;29;20474;-78
2024/02/13 12:57:40;;;;;;;0.40;0.30;;;10.80;96.30;;;;;;4939007;29;20808;-78
2024/02/13 13:00:14;;;;;;;0.30;0.30;;;10.80;96.50;;;;;;4938712;29;20503;-78